Time;durP1;ratioP1;P1;durP2;ratioP2;P2;SDS_P1;SDS_P2;PMS_P1;PMS_P2;Temp;Humidity;BMP_temperature;BMP_pressure;BME280_temperature;BME280_humidity;BME280_pressure;Samples;Min_cycle;Max_cycle;Signal;HPM_P1;HPM_P2
2023/09/25 00:02:25;;;;;;;;;3.00;2.00;;;;;15.36;68.81;102069.97;5010471;28;9094;-69
2023/09/25 00:04:52;;;;;;;;;4.00;2.00;;;;;15.36;68.57;102064.53;5012040;28;9158;-70
2023/09/25 00:07:19;;;;;;;;;2.67;2.33;;;;;15.32;68.72;102075.78;5008082;28;9021;-69
2023/09/25 00:09:45;;;;;;;;;2.00;2.00;;;;;15.28;68.52;102074.47;5011870;28;9151;-69
2023/09/25 00:12:12;;;;;;;;;3.00;3.00;;;;;15.25;68.88;102074.03;5011919;28;9154;-69
2023/09/25 00:14:38;;;;;;;;;3.00;3.00;;;;;15.24;68.90;102065.06;5011895;28;9228;-69
2023/09/25 00:17:05;;;;;;;;;2.33;1.33;;;;;15.25;69.15;102071.31;5010288;28;9161;-69
2023/09/25 00:19:32;;;;;;;;;2.00;2.00;;;;;15.25;69.08;102076.75;5011613;28;9940;-68
2023/09/25 00:21:58;;;;;;;;;3.00;2.00;;;;;15.24;68.89;102073.19;5009847;28;9454;-71
2023/09/25 00:24:25;;;;;;;;;2.00;2.00;;;;;15.26;68.95;102070.28;5011786;28;10172;-69
2023/09/25 00:26:52;;;;;;;;;3.00;2.00;;;;;15.24;68.82;102067.78;5009310;28;9248;-69
2023/09/25 00:29:19;;;;;;;;;4.00;3.00;;;;;15.24;68.67;102064.22;5011058;28;9235;-70
2023/09/25 00:31:45;;;;;;;;;3.00;2.67;;;;;15.19;69.10;102070.22;5010485;28;9159;-71
2023/09/25 00:34:13;;;;;;;;;2.33;2.00;;;;;15.18;68.99;102067.69;5010623;28;9283;-69
2023/09/25 00:36:40;;;;;;;;;2.00;2.00;;;;;15.13;68.78;102073.72;5007754;28;9251;-70
2023/09/25 00:39:07;;;;;;;;;2.00;2.00;;;;;15.08;68.81;102071.59;5008659;28;9187;-70
2023/09/25 00:41:35;;;;;;;;;2.67;2.00;;;;;15.09;69.20;102069.72;5009977;28;9243;-71
2023/09/25 00:44:01;;;;;;;;;2.00;1.00;;;;;15.09;68.83;102064.28;4991764;28;9283;-70
2023/09/25 00:46:28;;;;;;;;;2.00;1.00;;;;;15.09;68.97;102058.84;5009709;28;9165;-68
2023/09/25 00:48:55;;;;;;;;;4.00;2.00;;;;;15.09;68.89;102061.56;5009959;28;9240;-72
2023/09/25 00:51:23;;;;;;;;;2.00;2.00;;;;;15.03;69.08;102056.94;5009185;28;9253;-69
2023/09/25 00:53:50;;;;;;;;;2.00;1.33;;;;;15.02;69.07;102061.50;5011044;28;9321;-69
2023/09/25 00:56:17;;;;;;;;;3.00;2.00;;;;;15.04;68.68;102058.59;5010917;28;9154;-68
2023/09/25 00:58:44;;;;;;;;;2.33;2.33;;;;;15.03;68.79;102056.94;5007921;28;9263;-70
2023/09/25 01:01:11;;;;;;;;;1.00;1.00;;;;;15.03;68.54;102056.94;5009760;28;9306;-68
2023/09/25 01:03:38;;;;;;;;;3.00;3.00;;;;;15.04;68.19;102061.31;5008236;28;9095;-68
2023/09/25 01:06:05;;;;;;;;;2.67;2.67;;;;;15.02;67.83;102047.09;5006204;28;9460;-70
2023/09/25 01:08:33;;;;;;;;;2.00;2.00;;;;;15.01;67.69;102051.69;5010960;28;9285;-70
2023/09/25 01:11:00;;;;;;;;;3.00;2.00;;;;;15.01;67.83;102038.13;5010639;28;9350;-69
2023/09/25 01:13:28;;;;;;;;;0.00;0.00;;;;;15.04;67.79;102042.34;5009494;28;9331;-68
2023/09/25 01:15:54;;;;;;;;;2.00;2.00;;;;;15.00;67.77;102036.47;5009661;28;9234;-69
2023/09/25 01:18:21;;;;;;;;;2.67;1.67;;;;;15.03;67.44;102036.09;5007781;28;9327;-67
2023/09/25 01:20:49;;;;;;;;;2.00;2.00;;;;;15.02;67.23;102038.97;5007316;28;9242;-70
2023/09/25 01:23:16;;;;;;;;;2.00;2.00;;;;;14.99;67.08;102042.94;5009314;28;9333;-68
2023/09/25 01:25:42;;;;;;;;;2.00;2.00;;;;;15.00;67.33;102049.19;5010251;28;9309;-69
2023/09/25 01:28:09;;;;;;;;;1.33;1.00;;;;;15.02;67.12;102052.53;5008981;28;9230;-69
2023/09/25 01:30:36;;;;;;;;;1.33;1.00;;;;;15.03;67.10;102051.50;5009413;28;9251;-69
2023/09/25 01:33:04;;;;;;;;;2.33;2.00;;;;;15.03;67.14;102041.50;5003786;28;9958;-69
2023/09/25 01:35:30;;;;;;;;;1.33;1.00;;;;;15.05;66.91;102035.88;5008771;28;9242;-70
2023/09/25 01:37:58;;;;;;;;;1.00;1.00;;;;;15.05;66.77;102044.84;5025334;28;9233;-70
2023/09/25 01:40:26;;;;;;;;;1.33;1.33;;;;;15.05;67.06;102047.56;5010274;28;9174;-69
2023/09/25 01:42:52;;;;;;;;;1.33;1.33;;;;;15.05;66.57;102041.31;5024971;28;9168;-69
2023/09/25 01:45:19;;;;;;;;;2.00;2.00;;;;;15.00;66.49;102032.91;5009165;28;9235;-70
2023/09/25 01:47:51;;;;;;;;;2.67;2.00;;;;;15.01;66.70;102034.59;5015725;28;9365;-69
2023/09/25 01:50:21;;;;;;;;;2.00;2.00;;;;;15.01;66.42;102042.72;5014809;28;9209;-69
2023/09/25 01:52:49;;;;;;;;;2.00;2.00;;;;;15.04;66.45;102036.91;5019809;28;9255;-70
2023/09/25 01:55:16;;;;;;;;;1.00;1.00;;;;;15.05;66.49;102035.88;5012712;28;9269;-68
2023/09/25 01:57:42;;;;;;;;;2.00;2.00;;;;;15.04;66.30;102034.19;5008491;28;9242;-70
2023/09/25 02:00:09;;;;;;;;;1.00;1.00;;;;;14.99;66.37;102034.78;5008613;28;9182;-69
2023/09/25 02:02:42;;;;;;;;;2.00;2.00;;;;;14.99;66.48;102033.94;5005230;28;9263;-69
2023/09/25 02:05:09;;;;;;;;;1.67;1.67;;;;;15.01;66.12;102031.88;5008749;28;9074;-69
2023/09/25 02:07:36;;;;;;;;;2.00;2.00;;;;;15.01;66.40;102031.88;5006401;28;9172;-70
2023/09/25 02:10:03;;;;;;;;;2.00;2.00;;;;;14.96;66.33;102028.91;5008890;28;9173;-69
2023/09/25 02:12:29;;;;;;;;;1.00;0.67;;;;;14.95;66.44;102019.06;5009034;28;9197;-69
2023/09/25 02:15:02;;;;;;;;;2.67;2.67;;;;;14.96;66.67;102012.66;5009154;28;9150;-70
2023/09/25 02:17:29;;;;;;;;;1.00;1.00;;;;;14.93;66.35;102022.00;5009847;28;10090;-69
2023/09/25 02:20:12;;;;;;;;;1.00;1.00;;;;;14.90;66.57;102011.53;5008967;28;9239;-70
2023/09/25 02:22:39;;;;;;;;;2.00;2.00;;;;;14.87;66.69;102005.66;5012429;28;9284;-70
2023/09/25 02:25:06;;;;;;;;;2.00;2.00;;;;;14.82;66.81;102014.38;4992426;28;9264;-70
2023/09/25 02:27:32;;;;;;;;;2.33;2.33;;;;;14.78;66.95;101996.81;5024187;28;9172;-68
2023/09/25 02:30:00;;;;;;;;;4.00;3.00;;;;;14.78;66.75;102005.78;5011376;28;9245;-69
2023/09/25 02:32:27;;;;;;;;;3.67;3.67;;;;;14.74;66.49;102003.66;5012546;28;9870;-70
2023/09/25 02:34:53;;;;;;;;;2.00;2.00;;;;;14.70;66.45;101996.94;5018548;28;9308;-70
2023/09/25 02:37:20;;;;;;;;;3.00;3.00;;;;;14.69;66.77;101990.69;5012111;28;9939;-70
2023/09/25 02:39:46;;;;;;;;;3.67;3.67;;;;;14.68;66.71;101980.88;5012455;28;9174;-70
2023/09/25 02:42:13;;;;;;;;;4.00;2.00;;;;;14.70;67.12;101994.22;5011463;28;9348;-70
2023/09/25 02:44:40;;;;;;;;;2.00;2.00;;;;;14.67;66.56;101984.63;5012339;28;9408;-69
2023/09/25 02:47:07;;;;;;;;;3.00;3.00;;;;;14.63;66.38;101993.34;5013049;28;9330;-68
2023/09/25 02:49:34;;;;;;;;;3.33;2.00;;;;;14.60;66.62;101986.44;5011454;28;9414;-70
2023/09/25 02:52:00;;;;;;;;;3.00;2.00;;;;;14.56;66.60;101994.09;5013393;28;9295;-70
2023/09/25 02:54:27;;;;;;;;;3.33;3.00;;;;;14.57;66.85;101987.66;5012010;28;9386;-69
2023/09/25 02:56:53;;;;;;;;;2.33;2.33;;;;;14.58;66.57;101991.19;5011003;28;9379;-69
2023/09/25 02:59:20;;;;;;;;;3.67;2.00;;;;;14.56;66.88;101977.84;4994398;28;9174;-69
2023/09/25 03:01:46;;;;;;;;;2.33;2.33;;;;;14.57;66.61;101976.81;5010629;28;9385;-69
2023/09/25 03:04:13;;;;;;;;;1.00;1.00;;;;;14.59;66.69;101982.06;5010491;28;9317;-70
2023/09/25 03:06:39;;;;;;;;;2.00;2.00;;;;;14.56;66.33;101987.84;5011708;28;9317;-70
2023/09/25 03:09:06;;;;;;;;;3.33;3.00;;;;;14.58;66.22;101985.78;5011564;28;9267;-69
2023/09/25 03:11:33;;;;;;;;;2.33;2.33;;;;;14.57;66.17;101990.38;5011810;28;9396;-70
2023/09/25 03:13:59;;;;;;;;;2.33;2.00;;;;;14.58;65.80;101993.91;5013083;28;9438;-70
2023/09/25 03:16:27;;;;;;;;;1.33;1.00;;;;;14.62;66.19;101989.78;4992151;28;9345;-69
2023/09/25 03:18:54;;;;;;;;;2.00;2.00;;;;;14.61;66.19;101984.56;5021422;28;9017;-69
2023/09/25 03:21:21;;;;;;;;;2.67;2.67;;;;;14.64;65.86;101992.31;5011810;28;9387;-68
2023/09/25 03:23:47;;;;;;;;;2.67;2.00;;;;;14.64;65.51;101981.47;5012803;28;9164;-69
2023/09/25 03:26:19;;;;;;;;;2.33;2.00;;;;;14.58;65.74;101988.50;5012348;28;9156;-69
2023/09/25 03:28:48;;;;;;;;;2.00;2.00;;;;;14.57;66.15;101976.81;5012205;28;9228;-69
2023/09/25 03:31:16;;;;;;;;;2.67;2.67;;;;;14.54;65.89;101996.19;5008186;28;9313;-70
2023/09/25 03:33:46;;;;;;;;;3.00;2.00;;;;;14.57;65.63;101975.97;5010548;28;9339;-69
2023/09/25 03:36:13;;;;;;;;;3.00;3.00;;;;;14.65;65.68;101983.16;5011028;28;9309;-69
2023/09/25 03:38:40;;;;;;;;;2.00;2.00;;;;;14.65;65.82;101983.97;5011229;28;9505;-69
2023/09/25 03:41:06;;;;;;;;;1.33;1.33;;;;;14.62;65.40;101983.53;5009938;28;9259;-69
2023/09/25 03:43:33;;;;;;;;;2.33;2.33;;;;;14.61;65.72;101976.44;5011311;28;9246;-69
2023/09/25 03:46:01;;;;;;;;;2.00;2.00;;;;;14.57;65.46;101981.41;5009751;28;9972;-68
2023/09/25 03:48:28;;;;;;;;;2.33;2.00;;;;;14.59;65.60;101988.31;5010842;28;9180;-69
2023/09/25 03:50:54;;;;;;;;;1.33;1.33;;;;;14.59;65.32;101987.47;5012444;28;9165;-69
2023/09/25 03:53:21;;;;;;;;;2.00;2.00;;;;;14.51;65.43;101991.16;5011074;28;9305;-68
2023/09/25 03:55:48;;;;;;;;;4.00;2.67;;;;;14.51;65.36;101993.03;5012072;28;9427;-69
2023/09/25 03:58:14;;;;;;;;;2.00;2.00;;;;;14.52;65.21;101998.22;5009873;28;9297;-69
2023/09/25 04:00:41;;;;;;;;;2.00;2.00;;;;;14.47;65.27;101997.94;5009365;28;9256;-67
2023/09/25 04:03:08;;;;;;;;;2.00;2.00;;;;;14.47;64.96;101997.94;5008146;28;10065;-69
2023/09/25 04:05:34;;;;;;;;;2.33;2.33;;;;;14.49;65.24;101995.91;5010938;28;10053;-69
2023/09/25 04:08:01;;;;;;;;;1.00;1.00;;;;;14.49;65.66;102004.03;5010194;28;10093;-67
2023/09/25 04:10:28;;;;;;;;;2.00;2.00;;;;;14.47;65.44;102000.66;5010224;28;9239;-69
2023/09/25 04:12:55;;;;;;;;;1.00;1.00;;;;;14.50;65.50;102007.56;5010344;28;9376;-69
2023/09/25 04:15:24;;;;;;;;;2.00;2.00;;;;;14.50;65.62;101999.44;5011123;28;9154;-70
2023/09/25 04:17:51;;;;;;;;;3.00;1.00;;;;;14.51;65.39;102022.81;5007663;28;9365;-69
2023/09/25 04:20:24;;;;;;;;;2.00;2.00;;;;;14.52;65.86;102013.66;5006933;28;9319;-69
2023/09/25 04:22:56;;;;;;;;;2.33;2.33;;;;;14.50;65.43;102011.16;5011566;28;9306;-70
2023/09/25 04:25:22;;;;;;;;;2.33;1.00;;;;;14.44;65.32;102017.28;5011688;28;9232;-69
2023/09/25 04:27:52;;;;;;;;;1.00;1.00;;;;;14.48;65.03;102017.75;5011439;28;9324;-69
2023/09/25 04:30:20;;;;;;;;;2.00;2.00;;;;;14.44;65.53;102027.28;5008426;28;9440;-69
2023/09/25 04:32:49;;;;;;;;;4.00;4.00;;;;;14.43;65.73;102028.31;5005448;28;9364;-70
2023/09/25 04:35:17;;;;;;;;;3.00;2.00;;;;;14.44;65.79;102033.53;5011443;28;9428;-69
2023/09/25 04:37:44;;;;;;;;;2.33;2.00;;;;;14.42;65.65;102034.75;5010778;28;10156;-70
2023/09/25 04:40:22;;;;;;;;;2.67;2.67;;;;;14.33;65.78;102028.59;5008351;28;9269;-68
2023/09/25 04:42:50;;;;;;;;;1.33;1.33;;;;;14.34;65.93;102027.56;5011442;28;9395;-69
2023/09/25 04:45:18;;;;;;;;;3.00;2.00;;;;;14.34;66.02;102025.72;5011162;28;9049;-70
2023/09/25 04:47:46;;;;;;;;;2.00;2.00;;;;;14.35;66.05;102026.56;5007422;28;9155;-70
2023/09/25 04:50:14;;;;;;;;;2.33;2.33;;;;;14.39;66.04;102019.75;5006205;28;9091;-69
2023/09/25 04:52:41;;;;;;;;;2.67;2.67;;;;;14.39;66.06;102027.03;5011299;28;9079;-70
2023/09/25 04:55:12;;;;;;;;;3.00;3.00;;;;;14.36;65.90;102020.09;5026416;28;9892;-70
2023/09/25 04:57:41;;;;;;;;;2.33;2.00;;;;;14.38;65.62;102022.63;5010541;28;9309;-69
2023/09/25 05:00:15;;;;;;;;;1.00;1.00;;;;;14.38;66.04;102020.78;4992938;28;9160;-70
2023/09/25 05:02:46;;;;;;;;;1.33;1.33;;;;;14.37;65.99;102031.78;5004900;28;9255;-69
2023/09/25 05:05:14;;;;;;;;;3.00;3.00;;;;;14.34;65.94;102033.00;5009793;28;9352;-70
2023/09/25 05:07:42;;;;;;;;;2.67;2.67;;;;;14.36;66.16;102041.78;5009611;28;9240;-69
2023/09/25 05:10:11;;;;;;;;;2.00;2.00;;;;;14.34;66.10;102036.56;5009567;28;9232;-69
2023/09/25 05:12:41;;;;;;;;;2.00;2.00;;;;;14.35;65.92;102027.41;5010861;28;9191;-70
2023/09/25 05:15:09;;;;;;;;;3.00;3.00;;;;;14.32;66.33;102041.31;5010833;28;9322;-70
2023/09/25 05:17:39;;;;;;;;;3.00;3.00;;;;;14.28;66.21;102045.44;5008862;28;9165;-69
2023/09/25 05:20:11;;;;;;;;;2.67;2.67;;;;;14.28;66.04;102045.44;5010774;28;9327;-70
2023/09/25 05:22:39;;;;;;;;;2.00;1.67;;;;;14.29;66.25;102046.28;5009551;28;9335;-69
2023/09/25 05:25:09;;;;;;;;;1.33;1.33;;;;;14.26;66.42;102039.38;5010703;28;10012;-70
2023/09/25 05:27:37;;;;;;;;;3.00;2.67;;;;;14.27;66.49;102040.22;5010124;28;9325;-69
2023/09/25 05:30:06;;;;;;;;;1.00;1.00;;;;;14.22;66.49;102045.34;5008698;28;9270;-70
2023/09/25 05:32:33;;;;;;;;;3.00;3.00;;;;;14.22;66.33;102051.63;5005681;28;9392;-69
2023/09/25 05:35:00;;;;;;;;;1.67;1.67;;;;;14.23;66.19;102042.47;5008528;28;9369;-69
2023/09/25 05:37:26;;;;;;;;;3.00;2.67;;;;;14.24;66.36;102038.72;5007738;28;9154;-70
2023/09/25 05:39:53;;;;;;;;;2.00;2.00;;;;;14.20;66.41;102042.00;5015101;28;9166;-70
2023/09/25 05:42:19;;;;;;;;;2.00;2.00;;;;;14.16;66.32;102033.41;4995226;28;9355;-70
2023/09/25 05:44:46;;;;;;;;;2.33;2.00;;;;;14.18;66.24;102033.19;5009667;28;9290;-69
2023/09/25 05:47:13;;;;;;;;;2.00;2.00;;;;;14.21;66.40;102040.97;5007809;28;10106;-70
2023/09/25 05:49:40;;;;;;;;;3.00;2.00;;;;;14.25;65.98;102045.81;5003880;28;9334;-70
2023/09/25 05:52:06;;;;;;;;;1.33;1.33;;;;;14.20;66.01;102045.53;5013276;28;9165;-69
2023/09/25 05:54:33;;;;;;;;;3.67;3.00;;;;;14.18;66.35;102050.31;5015645;28;9429;-70
2023/09/25 05:57:00;;;;;;;;;1.67;1.67;;;;;14.16;66.34;102059.66;5008603;28;9438;-70
2023/09/25 05:59:26;;;;;;;;;2.67;2.67;;;;;14.13;66.34;102046.47;5014134;28;9455;-71
2023/09/25 06:01:53;;;;;;;;;2.33;2.00;;;;;14.19;66.52;102037.63;5016575;28;9324;-70
2023/09/25 06:04:19;;;;;;;;;4.25;4.00;;;;;14.19;66.31;102037.63;5025752;28;9235;-70
2023/09/25 06:06:46;;;;;;;;;2.33;2.33;;;;;14.18;66.16;102036.78;5023938;28;9461;-71
2023/09/25 06:09:15;;;;;;;;;2.00;2.00;;;;;14.24;66.33;102046.84;5012398;28;9483;-70
2023/09/25 06:11:42;;;;;;;;;1.00;1.00;;;;;14.24;66.34;102040.59;5014269;28;9384;-70
2023/09/25 06:14:11;;;;;;;;;2.00;2.00;;;;;14.25;66.51;102055.81;5013789;28;9523;-71
2023/09/25 06:16:39;;;;;;;;;3.00;3.00;;;;;14.25;66.24;102056.63;5030399;28;9467;-70
2023/09/25 06:19:08;;;;;;;;;3.00;3.00;;;;;14.24;66.51;102054.97;5012752;28;9336;-69
2023/09/25 06:21:34;;;;;;;;;2.00;2.00;;;;;14.25;66.49;102058.50;5015029;28;9538;-70
2023/09/25 06:24:01;;;;;;;;;4.67;2.00;;;;;14.23;66.49;102058.72;5015704;28;9412;-70
2023/09/25 06:26:28;;;;;;;;;3.00;3.00;;;;;14.24;66.29;102057.69;5016495;28;10161;-71
2023/09/25 06:28:55;;;;;;;;;3.00;2.33;;;;;14.28;66.34;102058.97;5053139;22;9371;-70
2023/09/25 06:31:23;;;;;;;;;3.33;2.33;;;;;14.29;66.59;102063.34;5050562;28;9294;-69
2023/09/25 06:33:52;;;;;;;;;2.67;2.67;;;;;14.32;66.54;102073.81;5047766;28;9255;-69
2023/09/25 06:36:19;;;;;;;;;3.33;2.67;;;;;14.34;66.59;102060.94;5046211;28;9318;-70
2023/09/25 06:38:46;;;;;;;;;2.33;2.33;;;;;14.31;66.27;102064.03;5017582;28;9944;-69
2023/09/25 06:41:13;;;;;;;;;2.25;2.25;;;;;14.29;65.97;102071.47;4998507;28;9306;-71
2023/09/25 06:43:39;;;;;;;;;2.67;2.67;;;;;14.30;66.39;102067.78;5035350;28;9417;-70
2023/09/25 06:46:06;;;;;;;;;3.67;3.00;;;;;14.32;66.04;102073.00;5022922;28;9321;-69
2023/09/25 06:48:33;;;;;;;;;4.33;4.33;;;;;14.29;66.47;102071.47;5015074;28;9374;-71
2023/09/25 06:50:59;;;;;;;;;6.33;3.67;;;;;14.26;66.59;102068.31;5026372;28;9421;-70
2023/09/25 06:53:26;;;;;;;;;3.00;3.00;;;;;14.26;66.15;102079.13;5006720;28;9496;-69
2023/09/25 06:55:52;;;;;;;;;3.00;3.00;;;;;14.33;65.87;102082.78;5009440;28;9313;-70
2023/09/25 06:58:19;;;;;;;;;1.33;1.33;;;;;14.38;65.97;102077.66;4999677;28;9249;-70
2023/09/25 07:00:46;;;;;;;;;2.67;2.00;;;;;14.44;66.00;102081.47;5021870;28;9311;-70
2023/09/25 07:03:23;;;;;;;;;3.33;3.33;;;;;14.48;65.91;102082.78;5010701;28;9332;-70
2023/09/25 07:05:49;;;;;;;;;7.00;4.33;;;;;14.49;66.01;102073.63;5016261;28;9316;-71
2023/09/25 07:08:16;;;;;;;;;4.00;3.00;;;;;14.48;65.93;102086.31;5026084;28;9332;-70
2023/09/25 07:10:46;;;;;;;;;6.33;5.33;;;;;14.50;65.92;102084.31;5012218;28;9308;-70
2023/09/25 07:13:13;;;;;;;;;3.00;3.00;;;;;14.47;65.80;102081.94;4994812;28;9451;-69
2023/09/25 07:15:39;;;;;;;;;2.00;2.00;;;;;14.50;65.73;102091.56;4992775;28;9297;-70
2023/09/25 07:18:06;;;;;;;;;4.67;4.00;;;;;14.53;66.14;102083.91;5002812;28;9915;-69
2023/09/25 07:20:33;;;;;;;;;2.50;2.25;;;;;14.57;65.88;102076.22;5003385;28;9354;-69
2023/09/25 07:23:00;;;;;;;;;2.50;2.50;;;;;14.62;66.06;102083.78;5020441;28;9468;-70
2023/09/25 07:25:26;;;;;;;;;2.50;2.00;;;;;14.63;66.32;102082.78;5020231;28;9391;-70
2023/09/25 07:27:53;;;;;;;;;1.67;1.67;;;;;14.63;66.32;102085.50;4994126;28;9378;-69
2023/09/25 07:30:20;;;;;;;;;2.00;2.00;;;;;14.61;66.21;102093.78;4993879;28;9323;-70
2023/09/25 07:32:47;;;;;;;;;3.00;3.00;;;;;14.64;67.21;102079.88;4990130;28;9423;-70
2023/09/25 07:35:15;;;;;;;;;4.00;2.67;;;;;14.68;66.51;102078.47;5009329;28;9440;-69
2023/09/25 07:37:42;;;;;;;;;2.00;2.00;;;;;14.67;66.21;102084.91;5011183;28;9464;-69
2023/09/25 07:40:09;;;;;;;;;1.67;1.67;;;;;14.63;66.36;102080.91;5011671;28;9384;-70
2023/09/25 07:42:36;;;;;;;;;2.00;2.00;;;;;14.68;66.09;102083.03;4994241;28;9432;-69
2023/09/25 07:45:05;;;;;;;;;1.67;1.67;;;;;14.65;66.56;102084.25;5012128;28;9171;-70
2023/09/25 07:47:32;;;;;;;;;4.25;4.25;;;;;14.61;66.48;102080.25;5023973;28;9329;-70
2023/09/25 07:49:59;;;;;;;;;3.00;3.00;;;;;14.63;66.47;102080.06;5030523;28;9489;-69
2023/09/25 07:52:26;;;;;;;;;4.00;3.67;;;;;14.65;66.39;102081.53;5011756;28;9422;-69
2023/09/25 07:54:52;;;;;;;;;4.67;3.00;;;;;14.65;66.57;102078.84;4992045;28;9327;-69
2023/09/25 07:57:20;;;;;;;;;3.33;2.00;;;;;14.67;66.43;102067.81;5011407;28;9686;-70
2023/09/25 07:59:48;;;;;;;;;4.00;3.00;;;;;14.69;66.78;102069.28;5011576;28;9384;-70
2023/09/25 08:02:20;;;;;;;;;4.67;4.00;;;;;14.71;66.47;102069.13;5006960;28;9364;-70
2023/09/25 08:04:48;;;;;;;;;2.33;2.33;;;;;14.74;66.60;102077.69;4996324;28;10204;-71
2023/09/25 08:07:15;;;;;;;;;1.00;1.00;;;;;14.79;66.74;102069.84;5015326;28;9353;-70
2023/09/25 08:09:41;;;;;;;;;4.67;4.00;;;;;14.83;66.96;102065.72;5011243;28;9338;-70
2023/09/25 08:12:08;;;;;;;;;3.67;3.67;;;;;14.82;66.99;102063.16;5013628;28;9394;-70
2023/09/25 08:14:35;;;;;;;;;2.00;2.00;;;;;14.83;66.64;102075.72;5014824;28;9312;-70
2023/09/25 08:17:02;;;;;;;;;4.67;3.00;;;;;14.80;66.73;102067.97;5010512;28;9138;-70
2023/09/25 08:19:28;;;;;;;;;2.00;2.00;;;;;14.86;66.79;102077.19;5010711;28;9382;-69
2023/09/25 08:21:55;;;;;;;;;4.00;3.67;;;;;14.88;67.01;102080.56;4993627;28;9944;-70
2023/09/25 08:24:22;;;;;;;;;3.00;3.00;;;;;14.84;66.93;102078.22;4977533;28;9293;-71
2023/09/25 08:26:48;;;;;;;;;2.33;2.33;;;;;14.86;66.77;102085.31;4993153;28;9507;-71
2023/09/25 08:29:16;;;;;;;;;3.00;3.00;;;;;14.88;66.58;102075.13;4992523;28;9248;-69
2023/09/25 08:31:44;;;;;;;;;3.00;3.00;;;;;14.89;66.70;102077.63;4994155;28;9301;-71
2023/09/25 08:34:11;;;;;;;;;5.00;4.00;;;;;14.90;66.84;102078.47;4991915;28;9270;-70
2023/09/25 08:36:38;;;;;;;;;3.00;3.00;;;;;14.95;66.75;102082.31;5008262;28;9420;-70
2023/09/25 08:39:05;;;;;;;;;2.00;2.00;;;;;15.03;67.54;102092.19;5020183;28;9321;-71
2023/09/25 08:41:32;;;;;;;;;3.00;3.00;;;;;15.06;67.28;102083.66;5004670;28;9364;-70
2023/09/25 08:43:59;;;;;;;;;2.00;2.00;;;;;15.12;66.81;102077.47;5011799;28;9479;-71
2023/09/25 08:46:27;;;;;;;;;4.00;2.00;;;;;15.15;67.00;102085.22;5010505;28;9302;-70
2023/09/25 08:48:56;;;;;;;;;3.00;3.00;;;;;15.17;67.05;102088.56;5009989;28;9213;-69
2023/09/25 08:51:24;;;;;;;;;3.00;3.00;;;;;15.17;66.73;102087.72;5009852;28;9303;-71
2023/09/25 08:53:52;;;;;;;;;5.00;4.00;;;;;15.14;66.61;102083.50;5008910;28;9388;-71
2023/09/25 08:56:19;;;;;;;;;3.00;2.00;;;;;15.16;66.56;102089.59;4991351;28;9372;-70
2023/09/25 08:58:49;;;;;;;;;3.00;3.00;;;;;15.17;66.81;102087.72;4998581;28;9252;-70
2023/09/25 09:01:17;;;;;;;;;4.00;4.00;;;;;15.16;66.81;102091.47;5015990;28;10163;-70
2023/09/25 09:03:45;;;;;;;;;4.67;4.67;;;;;15.08;67.15;102106.84;5009010;28;9328;-70
2023/09/25 09:06:13;;;;;;;;;3.67;3.00;;;;;15.11;66.96;102110.19;5008274;28;9305;-71
2023/09/25 09:08:39;;;;;;;;;3.67;3.00;;;;;15.22;66.90;102107.78;5003136;28;9321;-70
2023/09/25 09:11:10;;;;;;;;;5.00;5.00;;;;;15.29;67.13;102108.72;5010191;28;9219;-71
2023/09/25 09:13:47;;;;;;;;;3.33;2.67;;;;;15.35;66.81;102107.06;4992929;28;9380;-71
2023/09/25 09:16:15;;;;;;;;;4.67;4.67;;;;;15.28;67.00;102103.50;4992543;28;9157;-71
2023/09/25 09:18:42;;;;;;;;;7.00;7.00;;;;;15.32;66.74;102108.31;5007858;28;9356;-70
2023/09/25 09:21:26;;;;;;;;;4.00;4.00;;;;;15.41;66.75;102103.59;5008181;28;9332;-70
2023/09/25 09:23:56;;;;;;;;;1.33;1.33;;;;;15.50;67.15;102105.13;4993677;28;9225;-71
2023/09/25 09:26:26;;;;;;;;;2.67;2.67;;;;;15.56;67.31;102111.66;4991106;28;9176;-70
2023/09/25 09:28:54;;;;;;;;;3.33;3.00;;;;;15.57;67.09;102121.47;4999287;28;9088;-70
2023/09/25 09:31:20;;;;;;;;;3.00;3.00;;;;;15.58;67.03;102123.16;4992224;28;9372;-69
2023/09/25 09:33:47;;;;;;;;;3.00;2.67;;;;;15.66;67.07;102119.50;5010006;28;9296;-69
2023/09/25 09:36:19;;;;;;;;;3.00;3.00;;;;;15.74;67.14;102103.88;5003234;28;9351;-69
2023/09/25 09:38:46;;;;;;;;;6.00;6.00;;;;;15.79;67.01;102106.84;5004801;28;9171;-69
2023/09/25 09:41:14;;;;;;;;;4.00;4.00;;;;;15.85;67.06;102107.13;5001930;28;9159;-69
2023/09/25 09:43:41;;;;;;;;;2.00;2.00;;;;;15.91;67.38;102106.31;5004439;28;9125;-70
2023/09/25 09:46:11;;;;;;;;;2.33;2.00;;;;;15.97;67.01;102100.09;4989963;28;8896;-70
2023/09/25 09:48:40;;;;;;;;;3.00;3.00;;;;;16.04;66.68;102109.09;5009791;28;9008;-69
2023/09/25 09:51:10;;;;;;;;;5.00;3.67;;;;;16.04;66.87;102099.09;4981765;28;9161;-69
2023/09/25 09:53:38;;;;;;;;;3.67;2.00;;;;;16.04;66.58;102088.22;5012136;28;8984;-69
2023/09/25 09:56:04;;;;;;;;;3.00;3.00;;;;;16.12;66.40;102089.91;4992715;28;8916;-70
2023/09/25 09:58:32;;;;;;;;;3.00;3.00;;;;;16.15;66.76;102097.69;5009563;28;8839;-69
2023/09/25 10:01:00;;;;;;;;;2.25;2.25;;;;;16.21;66.72;102085.19;5009678;28;8917;-69
2023/09/25 10:03:29;;;;;;;;;6.00;4.00;;;;;16.24;66.45;102096.47;4991518;28;8866;-69
2023/09/25 10:05:56;;;;;;;;;3.33;3.33;;;;;16.27;66.70;102093.34;4973358;28;9022;-70
2023/09/25 10:08:22;;;;;;;;;3.00;3.00;;;;;16.32;66.89;102096.28;4990478;28;9071;-69
2023/09/25 10:10:51;;;;;;;;;1.67;1.67;;;;;16.36;66.63;102098.63;5009325;28;9016;-69
2023/09/25 10:13:28;;;;;;;;;2.33;2.33;;;;;16.39;66.78;102104.50;5009449;28;8929;-69
2023/09/25 10:16:01;;;;;;;;;3.00;3.00;;;;;16.42;66.67;102092.38;5008777;28;9007;-69
2023/09/25 10:18:30;;;;;;;;;2.00;1.67;;;;;16.51;66.64;102102.03;5009126;28;9082;-70
2023/09/25 10:21:08;;;;;;;;;4.67;4.33;;;;;16.64;67.08;102101.25;5008224;28;8921;-70
2023/09/25 10:23:38;;;;;;;;;3.00;3.00;;;;;16.64;66.77;102099.34;5002709;28;9020;-69
2023/09/25 10:26:19;;;;;;;;;1.00;1.00;;;;;16.69;66.79;102104.19;5008637;28;8994;-70
2023/09/25 10:29:15;;;;;;;;;3.00;3.00;;;;;16.72;66.72;102107.34;5008126;28;8839;-69
2023/09/25 10:31:46;;;;;;;;;5.00;5.00;;;;;16.73;66.64;102102.75;4994008;28;9026;-69
2023/09/25 10:34:12;;;;;;;;;6.67;5.33;;;;;16.72;66.53;102096.47;4990383;28;9010;-67
2023/09/25 10:36:47;;;;;;;;;1.50;1.50;;;;;16.75;66.70;102096.09;5006606;28;9101;-68
2023/09/25 10:39:16;;;;;;;;;3.00;3.00;;;;;16.84;66.49;102098.63;5006789;28;8930;-72
2023/09/25 10:41:47;;;;;;;;;2.67;2.67;;;;;16.88;66.95;102103.44;5013923;28;8835;-69
2023/09/25 10:44:16;;;;;;;;;3.00;3.00;;;;;16.89;66.69;102101.56;5013673;28;9004;-69
2023/09/25 10:46:43;;;;;;;;;2.75;2.75;;;;;16.91;66.70;102111.19;5011678;28;8823;-69
2023/09/25 10:49:10;;;;;;;;;2.75;2.75;;;;;16.93;66.84;102108.25;5006531;28;8819;-68
2023/09/25 10:51:37;;;;;;;;;4.25;3.00;;;;;16.98;66.88;102113.94;4988330;28;8960;-70
2023/09/25 10:54:04;;;;;;;;;3.75;3.00;;;;;17.04;66.82;102113.09;5011623;28;8852;-68
2023/09/25 10:56:32;;;;;;;;;6.00;3.00;;;;;17.08;66.62;102117.09;4988218;28;8923;-68
2023/09/25 10:59:00;;;;;;;;;2.33;2.33;;;;;17.10;66.39;102116.91;5012095;28;8813;-69
2023/09/25 11:01:28;;;;;;;;;3.50;3.50;;;;;17.12;66.83;102117.53;5006312;28;9027;-68
2023/09/25 11:03:57;;;;;;;;;2.25;2.25;;;;;17.16;66.90;102122.34;4992692;28;8842;-69
2023/09/25 11:06:25;;;;;;;;;3.50;3.00;;;;;17.21;66.68;102121.72;5012902;28;8848;-69
2023/09/25 11:09:05;;;;;;;;;3.50;3.50;;;;;17.22;66.84;102123.41;5012999;28;8841;-69
2023/09/25 11:11:32;;;;;;;;;3.50;2.75;;;;;17.21;66.95;102119.81;5011643;28;8904;-69
2023/09/25 11:13:59;;;;;;;;;1.00;1.00;;;;;17.24;67.03;102119.41;4995586;28;8839;-68
2023/09/25 11:16:27;;;;;;;;;2.75;2.75;;;;;17.24;67.17;102124.88;5012281;28;8866;-69
2023/09/25 11:19:10;;;;;;;;;3.25;2.50;;;;;17.27;67.09;102115.47;5012844;28;8925;-69
2023/09/25 11:21:38;;;;;;;;;3.50;3.50;;;;;17.25;67.45;102120.25;5012739;28;8835;-68
2023/09/25 11:24:09;;;;;;;;;3.00;3.00;;;;;17.26;67.24;102127.41;4995316;28;8831;-68
2023/09/25 11:26:41;;;;;;;;;4.50;3.00;;;;;17.28;67.65;102130.72;5011021;28;8854;-68
2023/09/25 11:29:08;;;;;;;;;6.50;4.75;;;;;17.35;67.58;102126.16;5012482;28;8835;-69
2023/09/25 11:31:38;;;;;;;;;4.00;4.00;;;;;17.40;67.58;102117.34;4992150;28;8951;-68
2023/09/25 11:34:25;;;;;;;;;3.50;3.50;;;;;17.50;67.08;102128.66;5006801;28;9651;-68
2023/09/25 11:36:52;;;;;;;;;1.50;1.25;;;;;17.58;67.45;102127.59;5011456;28;9169;-68
2023/09/25 11:39:19;;;;;;;;;5.33;5.00;;;;;17.60;67.31;102134.53;4999691;28;8870;-68